Time;durP1;ratioP1;P1;durP2;ratioP2;P2;SDS_P1;SDS_P2;PMS_P1;PMS_P2;Temp;Humidity;BMP_temperature;BMP_pressure;BME280_temperature;BME280_humidity;BME280_pressure;Samples;Min_cycle;Max_cycle;Signal;HPM_P1;HPM_P2
2023/07/23 00:02:15;;;;;;;;;;;;;;;13.62;73.58;96329.22;6276926;28;19924;-70
2023/07/23 00:05:18;;;;;;;;;;;;;;;13.66;73.05;96336.72;6277406;28;19924;-70
2023/07/23 00:08:19;;;;;;;;;;;;;;;13.75;72.51;96326.34;6294103;28;19924;-71
2023/07/23 00:11:20;;;;;;;;;;;;;;;13.80;72.46;96330.25;6294312;28;20503;-70
2023/07/23 00:14:21;;;;;;;;;;;;;;;13.90;72.36;96333.78;6297728;28;19924;-70
2023/07/23 00:17:27;;;;;;;;;;;;;;;14.02;72.10;96344.28;6282517;28;20400;-71
2023/07/23 00:20:31;;;;;;;;;;;;;;;14.00;72.14;96346.19;6299941;28;19950;-70
2023/07/23 00:23:32;;;;;;;;;;;;;;;14.05;72.12;96349.28;6299485;28;20063;-71
2023/07/23 00:26:36;;;;;;;;;;;;;;;14.04;72.29;96353.75;6281444;28;19924;-71
2023/07/23 00:29:37;;;;;;;;;;;;;;;13.98;72.50;96359.53;6298643;28;19924;-71
2023/07/23 00:32:40;;;;;;;;;;;;;;;14.16;72.98;96359.78;6298844;28;19924;-72
2023/07/23 00:35:44;;;;;;;;;;;;;;;14.12;72.67;96361.00;6299407;28;19924;-70
2023/07/23 00:38:47;;;;;;;;;;;;;;;14.04;72.62;96364.34;6280727;28;19978;-70
2023/07/23 00:41:54;;;;;;;;;;;;;;;13.98;72.65;96369.28;6299187;28;19929;-70
2023/07/23 00:44:57;;;;;;;;;;;;;;;13.99;72.82;96376.28;6299182;28;20352;-70
2023/07/23 00:47:59;;;;;;;;;;;;;;;13.96;73.07;96382.66;6298486;28;19924;-71
2023/07/23 00:51:02;;;;;;;;;;;;;;;13.95;72.92;96385.44;6281595;28;20425;-70
2023/07/23 00:54:03;;;;;;;;;;;;;;;13.87;73.04;96389.59;6299055;28;19925;-71
2023/07/23 00:57:05;;;;;;;;;;;;;;;13.85;73.00;96394.16;6297999;28;19925;-71
2023/07/23 01:00:08;;;;;;;;;;;;;;;13.95;72.84;96386.25;6298734;28;19928;-71
2023/07/23 01:03:09;;;;;;;;;;;;;;;14.05;72.63;96388.97;6298087;28;19924;-71
2023/07/23 01:06:13;;;;;;;;;;;;;;;14.08;72.42;96396.63;6298027;28;20389;-70
2023/07/23 01:09:16;;;;;;;;;;;;;;;14.10;72.78;96406.13;6280822;28;19957;-70
2023/07/23 01:12:22;;;;;;;;;;;;;;;14.13;72.56;96395.28;6298733;28;20001;-70
2023/07/23 01:15:26;;;;;;;;;;;;;;;14.19;72.65;96401.84;6279936;28;19924;-71
2023/07/23 01:18:27;;;;;;;;;;;;;;;14.26;72.37;96400.31;6298454;28;19931;-70
2023/07/23 01:21:28;;;;;;;;;;;;;;;14.37;72.38;96402.03;6280133;28;21176;-70
2023/07/23 01:24:29;;;;;;;;;;;;;;;14.46;72.14;96406.50;6278649;28;19931;-70
2023/07/23 01:27:32;;;;;;;;;;;;;;;14.54;71.94;96413.81;6297304;28;19924;-71
2023/07/23 01:30:33;;;;;;;;;;;;;;;14.62;71.76;96421.09;6298667;28;19978;-71
2023/07/23 01:33:35;;;;;;;;;;;;;;;14.66;71.48;96418.03;6297652;28;20376;-69
2023/07/23 01:36:38;;;;;;;;;;;;;;;14.77;71.39;96425.03;6279633;28;20467;-71
2023/07/23 01:39:43;;;;;;;;;;;;;;;14.81;71.26;96432.56;6297616;28;19963;-70
2023/07/23 01:42:46;;;;;;;;;;;;;;;14.86;71.23;96431.31;6280434;28;19924;-71
2023/07/23 01:45:47;;;;;;;;;;;;;;;14.89;71.30;96433.69;6297420;28;20321;-70
2023/07/23 01:48:51;;;;;;;;;;;;;;;14.91;71.21;96437.03;6296818;28;19925;-71
2023/07/23 01:51:54;;;;;;;;;;;;;;;14.97;71.19;96433.84;6297866;28;19928;-71
2023/07/23 01:54:55;;;;;;;;;;;;;;;14.98;71.23;96439.00;6296778;28;19947;-70
2023/07/23 01:57:59;;;;;;;;;;;;;;;15.03;71.27;96451.81;6297346;28;19924;-71
2023/07/23 02:01:04;;;;;;;;;;;;;;;15.08;71.30;96452.25;6297379;28;19928;-70
2023/07/23 02:04:11;;;;;;;;;;;;;;;15.14;71.43;96454.34;6296547;28;19924;-71
2023/07/23 02:07:14;;;;;;;;;;;;;;;15.14;71.55;96449.06;6297058;28;19928;-70
2023/07/23 02:10:20;;;;;;;;;;;;;;;15.20;71.48;96461.78;6296775;28;19947;-70
2023/07/23 02:13:23;;;;;;;;;;;;;;;15.27;71.29;96470.84;6296425;28;19943;-70
2023/07/23 02:16:29;;;;;;;;;;;;;;;15.36;71.24;96474.47;6279479;28;19924;-72
2023/07/23 02:19:37;;;;;;;;;;;;;;;15.46;71.30;96477.13;6297075;28;20211;-71
2023/07/23 02:22:37;;;;;;;;;;;;;;;15.48;71.50;96483.13;6297205;28;19959;-71
2023/07/23 02:25:41;;;;;;;;;;;;;;;15.53;71.37;96475.59;6296775;28;19925;-71
2023/07/23 02:28:44;;;;;;;;;;;;;;;15.65;71.32;96474.47;6296722;28;19928;-70
2023/07/23 02:31:48;;;;;;;;;;;;;;;15.72;71.15;96474.78;6279365;28;20364;-71
2023/07/23 02:34:49;;;;;;;;;;;;;;;15.77;71.26;96474.34;6296528;28;19924;-70
2023/07/23 02:37:51;;;;;;;;;;;;;;;15.83;71.20;96461.38;6295474;28;20114;-70
2023/07/23 02:40:57;;;;;;;;;;;;;;;15.92;71.10;96472.94;6296528;28;19924;-71
2023/07/23 02:43:58;;;;;;;;;;;;;;;16.00;71.00;96475.72;6295565;28;20409;-70
2023/07/23 02:46:59;;;;;;;;;;;;;;;16.04;70.81;96469.13;6295933;28;20225;-70
2023/07/23 02:50:00;;;;;;;;;;;;;;;16.10;70.85;96468.56;6295342;28;20279;-71
2023/07/23 02:53:01;;;;;;;;;;;;;;;16.28;70.74;96473.13;6296039;28;19921;-71
2023/07/23 02:56:03;;;;;;;;;;;;;;;16.42;69.87;96487.75;6295897;28;19929;-71
2023/07/23 02:59:06;;;;;;;;;;;;;;;16.46;69.70;96479.34;6296026;28;19920;-71
2023/07/23 03:02:14;;;;;;;;;;;;;;;16.51;69.49;96471.78;6278653;28;19931;-71
2023/07/23 03:05:18;;;;;;;;;;;;;;;16.60;69.58;96480.69;6295641;28;19920;-71
2023/07/23 03:08:20;;;;;;;;;;;;;;;16.71;68.85;96477.03;6296098;28;19924;-70
2023/07/23 03:11:21;;;;;;;;;;;;;;;16.76;68.64;96480.06;6295694;28;19927;-71
2023/07/23 03:14:22;;;;;;;;;;;;;;;16.85;67.96;96478.38;6295042;28;19925;-71
2023/07/23 03:17:26;;;;;;;;;;;;;;;16.91;67.87;96486.59;6277711;28;19921;-70
2023/07/23 03:20:33;;;;;;;;;;;;;;;16.96;67.56;96479.00;6295480;28;19931;-71
2023/07/23 03:23:36;;;;;;;;;;;;;;;17.01;67.65;96481.22;6294615;28;19928;-72
2023/07/23 03:26:39;;;;;;;;;;;;;;;17.13;67.03;96482.69;6295496;28;19924;-71
2023/07/23 03:29:43;;;;;;;;;;;;;;;17.26;66.09;96482.31;6295471;28;19924;-72
2023/07/23 03:32:44;;;;;;;;;;;;;;;17.36;65.15;96483.09;6277022;28;19925;-71
2023/07/23 03:35:45;;;;;;;;;;;;;;;17.45;64.87;96484.00;6294724;28;19931;-71
2023/07/23 03:38:46;;;;;;;;;;;;;;;17.54;64.19;96485.75;6294036;28;19924;-71
2023/07/23 03:41:50;;;;;;;;;;;;;;;17.65;63.13;96477.53;6294352;28;19932;-71
2023/07/23 03:44:53;;;;;;;;;;;;;;;17.93;60.45;96480.97;6295165;28;19924;-72
2023/07/23 03:47:57;;;;;;;;;;;;;;;17.99;59.75;96478.66;6294293;28;19939;-72
2023/07/23 03:50:59;;;;;;;;;;;;;;;18.08;58.58;96478.56;6276926;28;19924;-72
2023/07/23 03:54:02;;;;;;;;;;;;;;;18.29;56.52;96474.72;6295024;28;19925;-72
2023/07/23 03:57:06;;;;;;;;;;;;;;;18.48;54.78;96476.31;6277448;28;19925;-71
2023/07/23 04:00:08;;;;;;;;;;;;;;;18.51;54.67;96468.84;6294848;28;20010;-71
2023/07/23 04:03:11;;;;;;;;;;;;;;;18.63;52.78;96475.56;6294787;28;19982;-71
2023/07/23 04:06:15;;;;;;;;;;;;;;;18.74;52.19;96477.16;6294591;28;19924;-71
2023/07/23 04:09:17;;;;;;;;;;;;;;;18.78;51.70;96475.00;6294425;28;20445;-70
2023/07/23 04:12:18;;;;;;;;;;;;;;;18.86;51.80;96483.03;6260369;28;20297;-71
2023/07/23 04:15:19;;;;;;;;;;;;;;;18.88;52.06;96485.53;6294671;28;19931;-71
2023/07/23 04:18:21;;;;;;;;;;;;;;;18.89;51.71;96482.72;6294798;28;19925;-70
2023/07/23 04:21:22;;;;;;;;;;;;;;;19.03;51.06;96483.94;6276703;28;19961;-71
2023/07/23 04:24:25;;;;;;;;;;;;;;;19.08;50.82;96486.94;6293651;28;19925;-72
2023/07/23 04:27:29;;;;;;;;;;;;;;;19.16;50.50;96499.44;6294380;28;20310;-71
2023/07/23 04:30:32;;;;;;;;;;;;;;;19.22;50.20;96510.31;6293472;28;19930;-72
2023/07/23 04:33:38;;;;;;;;;;;;;;;19.30;49.73;96504.16;6294566;28;19924;-71
2023/07/23 04:36:39;;;;;;;;;;;;;;;19.34;49.46;96502.03;6294608;28;19924;-71
2023/07/23 04:39:42;;;;;;;;;;;;;;;19.50;49.47;96512.72;6294234;28;19978;-71
2023/07/23 04:42:45;;;;;;;;;;;;;;;19.79;48.82;96512.31;6294339;28;19924;-72
2023/07/23 04:45:48;;;;;;;;;;;;;;;21.43;44.50;96502.09;6294183;28;19925;-71
2023/07/23 04:48:54;;;;;;;;;;;;;;;24.17;39.61;96503.06;6294657;28;19924;-71
2023/07/23 04:51:59;;;;;;;;;;;;;;;26.75;36.11;96512.41;6294355;28;20390;-71
2023/07/23 04:55:01;;;;;;;;;;;;;;;28.82;32.28;96517.56;6294075;28;20321;-72
2023/07/23 04:58:04;;;;;;;;;;;;;;;30.67;30.28;96523.50;6293966;28;19924;-71
2023/07/23 05:01:09;;;;;;;;;;;;;;;32.97;26.84;96537.00;6280440;28;20046;-72
2023/07/23 05:04:16;;;;;;;;;;;;;;;34.80;24.93;96521.09;6298449;28;19936;-72
2023/07/23 05:07:18;;;;;;;;;;;;;;;36.60;23.92;96530.88;6297654;28;19951;-70
2023/07/23 05:10:19;;;;;;;;;;;;;;;38.23;20.21;96523.28;6297780;28;19931;-72
2023/07/23 05:13:25;;;;;;;;;;;;;;;39.59;19.51;96522.34;6298698;28;19932;-71
2023/07/23 05:16:26;;;;;;;;;;;;;;;40.43;19.57;96541.06;6279485;28;20302;-72
2023/07/23 05:19:29;;;;;;;;;;;;;;;41.29;18.48;96529.69;6298224;28;20424;-72
2023/07/23 05:22:31;;;;;;;;;;;;;;;42.34;16.44;96526.97;6279990;28;20073;-71
2023/07/23 05:25:35;;;;;;;;;;;;;;;42.97;17.35;96529.88;6298171;28;19925;-72
2023/07/23 05:28:39;;;;;;;;;;;;;;;43.07;16.55;96532.38;6298285;28;19932;-72
2023/07/23 05:31:43;;;;;;;;;;;;;;;43.48;16.04;96520.19;6298152;28;20429;-71
2023/07/23 05:34:48;;;;;;;;;;;;;;;43.89;15.49;96530.13;6298145;28;19963;-73
2023/07/23 05:37:52;;;;;;;;;;;;;;;43.75;14.37;96524.72;6297899;28;20421;-72
2023/07/23 05:40:58;;;;;;;;;;;;;;;43.43;13.63;96521.19;6297839;28;19925;-72
2023/07/23 05:44:02;;;;;;;;;;;;;;;43.34;14.82;96513.97;6279432;28;19924;-73
2023/07/23 05:47:03;;;;;;;;;;;;;;;43.69;13.53;96512.97;6296621;28;19931;-73
2023/07/23 05:50:07;;;;;;;;;;;;;;;44.21;13.44;96519.75;6297759;28;19924;-72
2023/07/23 05:53:13;;;;;;;;;;;;;;;44.23;12.98;96512.75;6280197;28;19924;-72
2023/07/23 05:56:17;;;;;;;;;;;;;;;43.88;13.35;96512.69;6279086;28;20022;-72
2023/07/23 05:59:18;;;;;;;;;;;;;;;44.40;13.44;96503.63;6296965;28;19925;-72
2023/07/23 06:02:21;;;;;;;;;;;;;;;44.97;12.48;96508.94;6296845;28;20338;-73
2023/07/23 06:05:24;;;;;;;;;;;;;;;44.93;12.14;96507.16;6296697;28;19928;-73
2023/07/23 06:08:26;;;;;;;;;;;;;;;44.55;12.56;96508.66;6296579;28;19967;-73
2023/07/23 06:11:29;;;;;;;;;;;;;;;44.75;12.33;96498.06;6295234;28;19932;-74
2023/07/23 06:14:33;;;;;;;;;;;;;;;44.83;12.20;96502.78;6297307;28;19932;-72
2023/07/23 06:17:36;;;;;;;;;;;;;;;45.21;12.16;96502.88;6296849;28;20360;-74
2023/07/23 06:20:40;;;;;;;;;;;;;;;45.64;12.24;96503.84;6296847;28;19924;-72
2023/07/23 06:23:46;;;;;;;;;;;;;;;46.10;11.57;96504.88;6296852;28;20448;-72
2023/07/23 06:26:49;;;;;;;;;;;;;;;46.66;11.57;96516.56;6296183;28;19926;-73
2023/07/23 06:29:52;;;;;;;;;;;;;;;46.55;10.86;96507.78;6296710;28;20310;-73
2023/07/23 06:32:58;;;;;;;;;;;;;;;46.49;10.99;96505.56;6296592;28;20456;-72
2023/07/23 06:36:03;;;;;;;;;;;;;;;47.07;10.95;96514.00;6296626;28;19924;-73
2023/07/23 06:39:07;;;;;;;;;;;;;;;46.76;10.66;96507.75;6296362;28;20006;-72
2023/07/23 06:42:08;;;;;;;;;;;;;;;46.88;10.27;96512.53;6296337;28;19932;-72
2023/07/23 06:45:14;;;;;;;;;;;;;;;46.74;9.74;96507.31;6296238;28;20312;-73
2023/07/23 06:48:17;;;;;;;;;;;;;;;46.88;10.26;96518.09;6296255;28;19924;-73
2023/07/23 06:51:20;;;;;;;;;;;;;;;47.59;9.50;96518.97;6295333;28;19928;-74
2023/07/23 06:54:22;;;;;;;;;;;;;;;48.09;10.02;96504.63;6277342;28;20057;-72
2023/07/23 06:57:27;;;;;;;;;;;;;;;48.58;9.20;96511.28;6295608;28;19925;-72
2023/07/23 07:00:31;;;;;;;;;;;;;;;48.13;8.73;96511.16;6278566;28;20394;-73
2023/07/23 07:03:34;;;;;;;;;;;;;;;48.09;9.12;96513.00;6295891;28;19924;-72
2023/07/23 07:06:37;;;;;;;;;;;;;;;48.19;9.39;96517.31;6295726;28;20022;-72
2023/07/23 07:09:42;;;;;;;;;;;;;;;48.02;9.65;96515.59;6295691;28;19925;-72
2023/07/23 07:12:44;;;;;;;;;;;;;;;48.87;8.74;96522.13;6295351;28;19924;-72
2023/07/23 07:15:46;;;;;;;;;;;;;;;49.17;9.07;96524.47;6294835;28;19983;-73
2023/07/23 07:18:50;;;;;;;;;;;;;;;49.10;9.36;96518.72;6295437;28;19925;-73
2023/07/23 07:21:55;;;;;;;;;;;;;;;50.04;8.51;96517.09;6295556;28;19924;-73
2023/07/23 07:24:57;;;;;;;;;;;;;;;50.25;8.35;96517.56;6294677;28;20020;-73
2023/07/23 07:28:00;;;;;;;;;;;;;;;50.33;8.63;96519.34;6295311;28;19924;-72
2023/07/23 07:31:04;;;;;;;;;;;;;;;50.29;8.06;96524.06;6260914;28;19968;-73
2023/07/23 07:34:09;;;;;;;;;;;;;;;49.78;8.57;96521.25;6295267;28;19924;-73
2023/07/23 07:37:10;;;;;;;;;;;;;;;47.58;9.38;96507.00;6294289;28;19925;-73
2023/07/23 07:40:16;;;;;;;;;;;;;;;47.35;9.46;96503.03;6294995;28;20400;-73
2023/07/23 07:43:20;;;;;;;;;;;;;;;48.06;9.16;96505.34;6294538;28;19925;-73
2023/07/23 07:46:24;;;;;;;;;;;;;;;48.23;8.73;96509.06;6295018;28;19920;-73
2023/07/23 07:49:30;;;;;;;;;;;;;;;48.17;8.84;96504.88;6277444;28;19932;-73
2023/07/23 07:52:32;;;;;;;;;;;;;;;47.57;8.67;96505.38;6294908;28;19920;-73
2023/07/23 07:55:38;;;;;;;;;;;;;;;45.51;9.98;96505.66;6294194;28;20027;-72
2023/07/23 07:58:40;;;;;;;;;;;;;;;47.29;9.21;96516.38;6294606;28;19924;-73
2023/07/23 08:01:41;;;;;;;;;;;;;;;46.66;10.07;96510.97;6294542;28;19932;-72
2023/07/23 08:04:44;;;;;;;;;;;;;;;44.26;11.27;96509.31;6277301;28;19932;-73
2023/07/23 08:07:50;;;;;;;;;;;;;;;41.43;12.69;96508.44;6294969;28;19924;-73
2023/07/23 08:10:56;;;;;;;;;;;;;;;39.34;14.07;96489.63;6293979;28;19924;-73
2023/07/23 08:13:57;;;;;;;;;;;;;;;41.02;13.15;96498.16;6294289;28;19936;-72
2023/07/23 08:16:58;;;;;;;;;;;;;;;44.14;11.44;96498.06;6294029;28;19987;-73
2023/07/23 08:20:03;;;;;;;;;;;;;;;46.07;10.19;96511.09;6294876;28;20373;-72
2023/07/23 08:23:05;;;;;;;;;;;;;;;44.96;10.42;96503.75;6293974;28;20035;-73
2023/07/23 08:26:07;;;;;;;;;;;;;;;41.86;12.23;96488.75;6293918;28;20043;-72
2023/07/23 08:29:13;;;;;;;;;;;;;;;39.22;14.03;96468.78;6294643;28;20318;-73
2023/07/23 08:32:16;;;;;;;;;;;;;;;36.43;15.92;96470.81;6293994;28;20257;-74
2023/07/23 08:35:24;;;;;;;;;;;;;;;34.43;18.02;96464.50;6297938;28;19925;-74
2023/07/23 08:38:26;;;;;;;;;;;;;;;33.59;18.86;96456.06;6298973;28;20026;-74
2023/07/23 08:41:33;;;;;;;;;;;;;;;33.13;19.29;96458.22;6298102;28;20413;-72
2023/07/23 08:44:55;;;;;;;;;;;;;;;33.76;19.43;96471.25;6299189;28;19931;-73
2023/07/23 08:48:20;;;;;;;;;;;;;;;38.41;15.63;96481.41;6299118;28;19925;-73
2023/07/23 08:51:24;;;;;;;;;;;;;;;42.07;12.78;96488.31;6298199;28;19924;-74
2023/07/23 08:54:30;;;;;;;;;;;;;;;43.77;12.15;96494.75;6298854;28;19925;-73
2023/07/23 08:57:33;;;;;;;;;;;;;;;41.69;12.82;96488.59;6297875;28;20067;-73
2023/07/23 09:00:38;;;;;;;;;;;;;;;37.77;14.93;96477.66;6298027;28;19924;-72
2023/07/23 09:03:41;;;;;;;;;;;;;;;34.85;17.77;96463.75;6298604;28;19921;-72
2023/07/23 09:06:47;;;;;;;;;;;;;;;34.06;18.49;96455.47;6298544;28;19924;-73
2023/07/23 09:09:51;;;;;;;;;;;;;;;36.43;16.59;96462.59;6298720;28;19926;-73
2023/07/23 09:12:55;;;;;;;;;;;;;;;39.82;14.21;96468.34;6298383;28;19924;-74
2023/07/23 09:15:58;;;;;;;;;;;;;;;41.87;12.75;96484.03;6280190;28;19920;-74
2023/07/23 09:19:00;;;;;;;;;;;;;;;43.45;11.84;96488.41;6298274;28;19924;-72
2023/07/23 09:22:04;;;;;;;;;;;;;;;43.46;11.75;96472.63;6297523;28;19932;-73
2023/07/23 09:25:08;;;;;;;;;;;;;;;43.48;11.23;96478.66;6298385;28;19924;-73
2023/07/23 09:28:25;;;;;;;;;;;;;;;43.31;11.50;96475.81;6298264;28;20478;-73
2023/07/23 09:31:31;;;;;;;;;;;;;;;43.76;11.21;96470.09;6298126;28;19930;-73
2023/07/23 09:34:33;;;;;;;;;;;;;;;44.49;11.14;96473.91;6297846;28;19924;-73
2023/07/23 09:37:36;;;;;;;;;;;;;;;43.50;11.49;96468.06;6296951;28;19928;-72
2023/07/23 09:40:39;;;;;;;;;;;;;;;40.91;12.95;96480.16;6297437;28;19925;-73
2023/07/23 09:43:43;;;;;;;;;;;;;;;38.05;14.50;96464.31;6297076;28;20297;-72
2023/07/23 09:46:45;;;;;;;;;;;;;;;35.85;16.02;96457.34;6296147;28;20021;-77
2023/07/23 09:49:47;;;;;;;;;;;;;;;34.07;17.86;96447.00;6296809;28;20297;-72
2023/07/23 09:52:50;;;;;;;;;;;;;;;33.34;18.24;96459.28;6297557;28;19924;-73
2023/07/23 09:55:55;;;;;;;;;;;;;;;32.69;19.08;96458.09;6297411;28;19928;-72
2023/07/23 09:58:57;;;;;;;;;;;;;;;32.38;18.83;96446.72;6296635;28;19931;-72
2023/07/23 10:02:04;;;;;;;;;;;;;;;32.79;18.66;96441.91;6297545;28;19931;-72
2023/07/23 10:05:10;;;;;;;;;;;;;;;33.11;18.64;96449.44;6297299;28;19920;-72
2023/07/23 10:08:14;;;;;;;;;;;;;;;33.04;18.56;96436.03;6297141;28;20302;-73
2023/07/23 10:11:16;;;;;;;;;;;;;;;32.95;18.98;96441.06;6296265;28;19925;-74
2023/07/23 10:14:20;;;;;;;;;;;;;;;32.62;19.44;96445.50;6296908;28;20015;-73
2023/07/23 10:17:21;;;;;;;;;;;;;;;32.85;19.29;96452.63;6296340;28;19943;-72
2023/07/23 10:20:26;;;;;;;;;;;;;;;33.01;19.26;96445.53;6296382;28;19960;-73
2023/07/23 10:23:27;;;;;;;;;;;;;;;32.63;19.68;96444.41;6296331;28;19925;-72
2023/07/23 10:26:40;;;;;;;;;;;;;;;32.12;20.00;96450.94;6296606;28;19924;-73
2023/07/23 10:30:03;;;;;;;;;;;;;;;31.68;20.76;96450.69;6296565;28;19948;-73
2023/07/23 10:33:10;;;;;;;;;;;;;;;31.15;20.38;96447.16;6296088;28;19925;-73
2023/07/23 10:36:11;;;;;;;;;;;;;;;31.18;20.84;96437.72;6296384;28;19925;-73
2023/07/23 10:39:14;;;;;;;;;;;;;;;31.46;20.69;96445.91;6296137;28;20020;-73
2023/07/23 10:42:34;;;;;;;;;;;;;;;32.14;19.61;96438.72;6295823;28;19931;-73
2023/07/23 10:45:35;;;;;;;;;;;;;;;32.56;19.62;96442.94;6295983;28;19936;-73
2023/07/23 10:48:49;;;;;;;;;;;;;;;32.76;19.11;96443.25;6278990;28;20397;-73
2023/07/23 10:52:11;;;;;;;;;;;;;;;32.78;19.37;96448.44;6296147;28;19925;-72
2023/07/23 10:55:12;;;;;;;;;;;;;;;33.19;19.00;96440.84;6295026;28;19924;-73
2023/07/23 10:58:19;;;;;;;;;;;;;;;33.68;18.68;96446.31;6295716;28;19924;-73
2023/07/23 11:01:23;;;;;;;;;;;;;;;34.22;18.33;96454.50;6295777;28;20394;-72
2023/07/23 11:04:34;;;;;;;;;;;;;;;34.01;18.46;96447.19;6294777;28;19932;-73
2023/07/23 11:07:38;;;;;;;;;;;;;;;33.43;18.82;96453.13;6295584;28;19924;-74
2023/07/23 11:10:55;;;;;;;;;;;;;;;33.06;19.24;96447.47;6295750;28;19935;-72
2023/07/23 11:14:01;;;;;;;;;;;;;;;32.31;19.82;96429.75;6277968;28;19924;-72
2023/07/23 11:17:03;;;;;;;;;;;;;;;31.88;20.18;96437.44;6295521;28;19924;-74
2023/07/23 11:20:07;;;;;;;;;;;;;;;31.48;21.03;96437.50;6295471;28;19959;-74
2023/07/23 11:23:13;;;;;;;;;;;;;;;31.46;21.03;96423.34;6295367;28;20031;-74
2023/07/23 11:26:17;;;;;;;;;;;;;;;31.37;20.60;96428.34;6295201;28;19925;-72
2023/07/23 11:29:18;;;;;;;;;;;;;;;31.58;20.22;96436.88;6294707;28;19924;-73
2023/07/23 11:32:25;;;;;;;;;;;;;;;31.31;20.30;96432.81;6295019;28;20340;-73
2023/07/23 11:35:26;;;;;;;;;;;;;;;31.24;20.10;96432.13;6294501;28;20518;-73
2023/07/23 11:38:33;;;;;;;;;;;;;;;31.33;20.25;96430.66;6294848;28;20368;-72
2023/07/23 11:41:40;;;;;;;;;;;;;;;31.47;20.19;96441.28;6295153;28;19924;-72
2023/07/23 11:45:00;;;;;;;;;;;;;;;31.83;19.35;96440.06;6295018;28;19930;-73
2023/07/23 11:48:02;;;;;;;;;;;;;;;31.75;19.92;96429.59;6294589;28;20385;-73
2023/07/23 11:51:04;;;;;;;;;;;;;;;31.15;19.93;96433.56;6294034;28;20390;-73
2023/07/23 11:54:09;;;;;;;;;;;;;;;30.53;20.87;96433.28;6294543;28;19959;-72
2023/07/23 11:57:15;;;;;;;;;;;;;;;30.01;21.20;96433.94;6294972;28;19928;-72
2023/07/23 12:00:24;;;;;;;;;;;;;;;29.71;21.52;96440.22;6294241;28;19924;-74
2023/07/23 12:03:31;;;;;;;;;;;;;;;29.57;21.90;96427.06;6295056;28;19946;-73
2023/07/23 12:06:33;;;;;;;;;;;;;;;29.51;22.13;96435.03;6294228;28;20023;-72
2023/07/23 12:09:39;;;;;;;;;;;;;;;30.17;21.70;96432.41;6292615;28;19932;-72
2023/07/23 12:12:43;;;;;;;;;;;;;;;30.54;20.81;96443.06;6276407;28;20005;-74
2023/07/23 12:15:49;;;;;;;;;;;;;;;30.37;21.43;96432.91;6293769;28;20039;-73
2023/07/23 12:18:50;;;;;;;;;;;;;;;29.97;21.70;96433.56;6294626;28;19931;-72
2023/07/23 12:21:57;;;;;;;;;;;;;;;29.83;22.07;96429.41;6294433;28;20286;-74
2023/07/23 12:24:58;;;;;;;;;;;;;;;29.35;22.37;96426.72;6294332;28;19927;-73
2023/07/23 12:28:04;;;;;;;;;;;;;;;29.01;22.63;96423.59;6294586;28;20393;-73
2023/07/23 12:31:08;;;;;;;;;;;;;;;28.70;23.03;96427.28;6294330;28;19920;-73
2023/07/23 12:34:10;;;;;;;;;;;;;;;28.63;23.21;96422.75;6293516;28;19955;-73
2023/07/23 12:37:15;;;;;;;;;;;;;;;29.08;22.78;96414.34;6275551;28;19932;-71
2023/07/23 12:40:19;;;;;;;;;;;;;;;30.06;22.13;96419.66;6293342;28;19924;-74
2023/07/23 12:43:20;;;;;;;;;;;;;;;30.68;21.84;96420.03;6293606;28;19947;-73
2023/07/23 12:46:26;;;;;;;;;;;;;;;30.49;21.60;96413.09;6294282;28;20023;-73
2023/07/23 12:49:32;;;;;;;;;;;;;;;30.26;22.37;96409.31;6294279;28;19925;-73
2023/07/23 12:52:35;;;;;;;;;;;;;;;30.12;22.65;96425.00;6293943;28;19924;-72
2023/07/23 12:55:36;;;;;;;;;;;;;;;29.96;22.81;96420.25;6293335;28;19931;-73
2023/07/23 12:58:40;;;;;;;;;;;;;;;29.75;22.94;96413.44;6293883;28;19931;-72
2023/07/23 13:01:41;;;;;;;;;;;;;;;29.53;22.92;96411.25;6293478;28;19925;-73
2023/07/23 13:04:45;;;;;;;;;;;;;;;29.36;23.17;96420.28;6276803;28;19924;-74
2023/07/23 13:07:50;;;;;;;;;;;;;;;29.04;23.40;96413.16;6293976;28;19932;-74
2023/07/23 13:10:52;;;;;;;;;;;;;;;28.64;23.72;96424.41;6293169;28;19925;-74
2023/07/23 13:13:56;;;;;;;;;;;;;;;28.14;23.75;96419.06;6293949;28;20290;-75
2023/07/23 13:16:59;;;;;;;;;;;;;;;27.44;24.23;96419.09;6294226;28;20409;-73
2023/07/23 13:20:01;;;;;;;;;;;;;;;27.16;24.41;96410.53;6294860;28;19932;-73
2023/07/23 13:23:05;;;;;;;;;;;;;;;27.13;24.50;96416.34;6280934;28;19924;-74
2023/07/23 13:26:08;;;;;;;;;;;;;;;27.15;24.05;96412.38;6298185;28;19977;-73
2023/07/23 13:29:14;;;;;;;;;;;;;;;26.97;24.48;96409.53;6298479;28;20099;-73
2023/07/23 13:32:19;;;;;;;;;;;;;;;26.28;24.87;96406.38;6298080;28;20480;-72
2023/07/23 13:35:26;;;;;;;;;;;;;;;25.89;25.78;96404.53;6297654;28;20290;-72
2023/07/23 13:38:32;;;;;;;;;;;;;;;25.81;25.63;96410.09;6297471;28;19925;-72
2023/07/23 13:41:36;;;;;;;;;;;;;;;26.07;25.29;96409.28;6297866;28;19924;-73
2023/07/23 13:44:39;;;;;;;;;;;;;;;26.25;24.67;96414.91;6297422;28;19930;-74
2023/07/23 13:47:40;;;;;;;;;;;;;;;26.29;24.95;96410.72;6297549;28;20390;-73
2023/07/23 13:50:46;;;;;;;;;;;;;;;26.22;25.09;96409.91;6295451;28;20386;-72
2023/07/23 13:53:47;;;;;;;;;;;;;;;25.87;25.65;96409.28;6296447;28;19932;-72
2023/07/23 13:56:51;;;;;;;;;;;;;;;25.69;25.75;96409.88;6297057;28;20337;-71
2023/07/23 13:59:58;;;;;;;;;;;;;;;25.48;25.90;96408.22;6297579;28;19924;-72
2023/07/23 14:03:04;;;;;;;;;;;;;;;25.43;26.08;96416.88;6297297;28;20308;-73
2023/07/23 14:06:05;;;;;;;;;;;;;;;25.67;25.81;96423.53;6296450;28;19924;-72
2023/07/23 14:09:06;;;;;;;;;;;;;;;25.92;25.70;96420.28;6295992;28;19935;-73
2023/07/23 14:12:07;;;;;;;;;;;;;;;26.30;24.92;96428.59;6295969;28;20386;-73
2023/07/23 14:15:09;;;;;;;;;;;;;;;26.18;25.44;96427.53;6295308;28;19925;-72
2023/07/23 14:18:15;;;;;;;;;;;;;;;26.21;25.33;96419.03;6279288;28;19924;-72
2023/07/23 14:21:16;;;;;;;;;;;;;;;26.13;25.61;96427.34;6296508;28;20353;-73
2023/07/23 14:24:20;;;;;;;;;;;;;;;26.01;25.75;96418.22;6296496;28;19931;-72
2023/07/23 14:27:21;;;;;;;;;;;;;;;25.94;25.99;96416.34;6293438;28;19931;-72
2023/07/23 14:30:23;;;;;;;;;;;;;;;25.70;26.43;96412.38;6295820;28;20526;-72
2023/07/23 14:33:26;;;;;;;;;;;;;;;25.36;27.11;96415.22;6296227;28;19924;-72
2023/07/23 14:36:29;;;;;;;;;;;;;;;25.09;27.27;96423.19;6295923;28;19932;-72
2023/07/23 14:39:32;;;;;;;;;;;;;;;24.95;27.53;96419.59;6295683;28;19924;-72
2023/07/23 14:42:33;;;;;;;;;;;;;;;24.94;27.62;96428.72;6295923;28;20505;-73
2023/07/23 14:45:43;;;;;;;;;;;;;;;25.10;27.26;96428.34;6296502;28;19942;-72
2023/07/23 14:48:48;;;;;;;;;;;;;;;25.35;27.34;96429.72;6296374;28;19924;-73
2023/07/23 14:51:52;;;;;;;;;;;;;;;25.39;27.21;96420.19;6295878;28;19959;-73
2023/07/23 14:54:55;;;;;;;;;;;;;;;25.20;27.23;96422.63;6295377;28;20459;-71
2023/07/23 14:58:06;;;;;;;;;;;;;;;24.85;27.76;96425.38;6295740;28;19924;-73
2023/07/23 15:01:10;;;;;;;;;;;;;;;24.54;28.39;96428.53;6295455;28;19924;-72
2023/07/23 15:04:11;;;;;;;;;;;;;;;24.16;29.06;96426.16;6295725;28;20397;-72
2023/07/23 15:07:14;;;;;;;;;;;;;;;23.81;29.50;96422.59;6277465;28;19931;-73
2023/07/23 15:10:17;;;;;;;;;;;;;;;23.49;29.81;96418.50;6294790;28;19925;-73
2023/07/23 15:13:18;;;;;;;;;;;;;;;23.20;30.13;96420.28;6294647;28;19924;-72
2023/07/23 15:16:21;;;;;;;;;;;;;;;22.99;30.14;96420.25;6295535;28;20389;-72
2023/07/23 15:19:26;;;;;;;;;;;;;;;22.88;30.48;96428.75;6295563;28;20014;-73
2023/07/23 15:22:29;;;;;;;;;;;;;;;22.80;30.47;96422.47;6295320;28;20290;-74
2023/07/23 15:25:33;;;;;;;;;;;;;;;22.75;30.60;96422.19;6295299;28;19924;-71
2023/07/23 15:28:38;;;;;;;;;;;;;;;22.72;30.64;96424.41;6295186;28;19924;-73
2023/07/23 15:31:41;;;;;;;;;;;;;;;22.70;30.83;96424.59;6294828;28;19924;-72
2023/07/23 15:34:47;;;;;;;;;;;;;;;22.73;30.71;96418.88;6277477;28;19924;-73
2023/07/23 15:37:50;;;;;;;;;;;;;;;22.77;30.87;96425.53;6293925;28;19928;-72
2023/07/23 15:40:53;;;;;;;;;;;;;;;22.81;31.18;96426.81;6294610;28;19932;-73
2023/07/23 15:43:55;;;;;;;;;;;;;;;22.78;30.96;96432.53;6294086;28;19931;-73
2023/07/23 15:46:56;;;;;;;;;;;;;;;22.82;31.28;96439.22;6293835;28;19931;-72
2023/07/23 15:49:58;;;;;;;;;;;;;;;22.76;32.29;96439.97;6293696;28;20447;-72
2023/07/23 15:52:59;;;;;;;;;;;;;;;22.71;32.17;96439.69;6294022;28;19928;-73
2023/07/23 15:56:03;;;;;;;;;;;;;;;22.55;32.35;96442.56;6294629;28;19924;-73
2023/07/23 15:59:06;;;;;;;;;;;;;;;22.34;32.55;96443.28;6294248;28;20400;-72